sensor_id;sensor_type;location;lat;lon;timestamp;temperature;humidity
67529;DHT22;54366;51.980;5.856;2022-10-31T00:00:02;14.40;81.60
67529;DHT22;54366;51.980;5.856;2022-10-31T00:02:37;14.40;81.70
67529;DHT22;54366;51.980;5.856;2022-10-31T00:05:04;14.40;82.00
67529;DHT22;54366;51.980;5.856;2022-10-31T00:07:30;14.30;81.70
67529;DHT22;54366;51.980;5.856;2022-10-31T00:09:56;14.30;81.80
67529;DHT22;54366;51.980;5.856;2022-10-31T00:12:23;14.30;82.00
67529;DHT22;54366;51.980;5.856;2022-10-31T00:14:49;14.30;82.00
67529;DHT22;54366;51.980;5.856;2022-10-31T00:17:15;14.30;82.10
67529;DHT22;54366;51.980;5.856;2022-10-31T00:19:41;14.20;82.10
67529;DHT22;54366;51.980;5.856;2022-10-31T00:22:07;14.20;82.10
67529;DHT22;54366;51.980;5.856;2022-10-31T00:24:33;14.20;82.10
67529;DHT22;54366;51.980;5.856;2022-10-31T00:27:00;14.20;82.00
67529;DHT22;54366;51.980;5.856;2022-10-31T00:29:27;14.20;82.00
67529;DHT22;54366;51.980;5.856;2022-10-31T00:31:53;14.10;81.90
67529;DHT22;54366;51.980;5.856;2022-10-31T00:34:19;14.10;82.00
67529;DHT22;54366;51.980;5.856;2022-10-31T00:36:46;14.10;82.10
67529;DHT22;54366;51.980;5.856;2022-10-31T00:39:13;14.10;82.10
67529;DHT22;54366;51.980;5.856;2022-10-31T00:41:39;14.10;82.10
67529;DHT22;54366;51.980;5.856;2022-10-31T00:44:11;14.10;82.30
67529;DHT22;54366;51.980;5.856;2022-10-31T00:46:38;14.10;82.30
67529;DHT22;54366;51.980;5.856;2022-10-31T00:49:04;14.10;82.30
67529;DHT22;54366;51.980;5.856;2022-10-31T00:51:30;14.10;82.40
67529;DHT22;54366;51.980;5.856;2022-10-31T00:53:58;14.00;82.40
67529;DHT22;54366;51.980;5.856;2022-10-31T00:56:24;14.00;82.50
67529;DHT22;54366;51.980;5.856;2022-10-31T00:58:50;14.00;82.60
67529;DHT22;54366;51.980;5.856;2022-10-31T01:01:17;14.00;82.70
67529;DHT22;54366;51.980;5.856;2022-10-31T01:03:43;14.00;82.70
67529;DHT22;54366;51.980;5.856;2022-10-31T01:06:13;14.00;82.80
67529;DHT22;54366;51.980;5.856;2022-10-31T01:08:40;14.00;82.70
67529;DHT22;54366;51.980;5.856;2022-10-31T01:11:17;14.00;82.80
67529;DHT22;54366;51.980;5.856;2022-10-31T01:13:44;13.90;82.70
67529;DHT22;54366;51.980;5.856;2022-10-31T01:16:13;14.00;82.80
67529;DHT22;54366;51.980;5.856;2022-10-31T01:18:39;13.90;82.80
67529;DHT22;54366;51.980;5.856;2022-10-31T01:21:13;13.90;82.90
67529;DHT22;54366;51.980;5.856;2022-10-31T01:23:40;13.90;83.00
67529;DHT22;54366;51.980;5.856;2022-10-31T01:26:19;13.90;83.00
67529;DHT22;54366;51.980;5.856;2022-10-31T01:28:51;13.90;83.00
67529;DHT22;54366;51.980;5.856;2022-10-31T01:31:19;13.90;83.00
67529;DHT22;54366;51.980;5.856;2022-10-31T01:33:45;13.90;83.10
67529;DHT22;54366;51.980;5.856;2022-10-31T01:38:39;13.90;83.20
67529;DHT22;54366;51.980;5.856;2022-10-31T01:41:06;13.90;83.10
67529;DHT22;54366;51.980;5.856;2022-10-31T01:43:49;13.90;83.10
67529;DHT22;54366;51.980;5.856;2022-10-31T01:46:20;13.90;82.90
67529;DHT22;54366;51.980;5.856;2022-10-31T01:48:48;13.90;82.70
67529;DHT22;54366;51.980;5.856;2022-10-31T01:51:15;13.80;82.50
67529;DHT22;54366;51.980;5.856;2022-10-31T01:53:44;13.80;82.60
67529;DHT22;54366;51.980;5.856;2022-10-31T01:56:13;13.80;82.80
67529;DHT22;54366;51.980;5.856;2022-10-31T01:58:42;13.80;82.90
67529;DHT22;54366;51.980;5.856;2022-10-31T02:01:10;13.70;83.00
67529;DHT22;54366;51.980;5.856;2022-10-31T02:03:38;13.70;83.20
67529;DHT22;54366;51.980;5.856;2022-10-31T02:06:07;13.70;83.20
67529;DHT22;54366;51.980;5.856;2022-10-31T02:08:37;13.70;83.20
67529;DHT22;54366;51.980;5.856;2022-10-31T02:11:05;13.70;83.40
67529;DHT22;54366;51.980;5.856;2022-10-31T02:13:33;13.70;83.30
67529;DHT22;54366;51.980;5.856;2022-10-31T02:16:00;13.70;83.30
67529;DHT22;54366;51.980;5.856;2022-10-31T02:18:29;13.70;83.10
67529;DHT22;54366;51.980;5.856;2022-10-31T02:21:17;13.70;83.00
67529;DHT22;54366;51.980;5.856;2022-10-31T02:37:57;13.50;83.10
67529;DHT22;54366;51.980;5.856;2022-10-31T02:40:31;13.50;83.10
67529;DHT22;54366;51.980;5.856;2022-10-31T02:43:26;13.50;82.90
67529;DHT22;54366;51.980;5.856;2022-10-31T02:48:23;13.40;82.90
67529;DHT22;54366;51.980;5.856;2022-10-31T02:51:03;13.40;82.90
67529;DHT22;54366;51.980;5.856;2022-10-31T02:53:34;13.40;82.80
67529;DHT22;54366;51.980;5.856;2022-10-31T02:56:18;13.30;82.70
67529;DHT22;54366;51.980;5.856;2022-10-31T02:58:47;13.40;82.90
67529;DHT22;54366;51.980;5.856;2022-10-31T03:06:44;13.20;82.90
67529;DHT22;54366;51.980;5.856;2022-10-31T03:09:33;13.20;82.90
67529;DHT22;54366;51.980;5.856;2022-10-31T03:14:54;13.10;82.90
67529;DHT22;54366;51.980;5.856;2022-10-31T03:17:33;13.10;83.00
67529;DHT22;54366;51.980;5.856;2022-10-31T03:20:04;13.10;83.00
67529;DHT22;54366;51.980;5.856;2022-10-31T03:22:33;13.10;82.90
67529;DHT22;54366;51.980;5.856;2022-10-31T03:25:02;13.10;82.90
67529;DHT22;54366;51.980;5.856;2022-10-31T03:27:33;13.00;82.90
67529;DHT22;54366;51.980;5.856;2022-10-31T03:30:03;13.00;82.90
67529;DHT22;54366;51.980;5.856;2022-10-31T03:32:51;13.00;82.80
67529;DHT22;54366;51.980;5.856;2022-10-31T03:35:20;12.90;82.70
67529;DHT22;54366;51.980;5.856;2022-10-31T03:37:49;12.90;82.70
67529;DHT22;54366;51.980;5.856;2022-10-31T03:40:19;12.90;82.60
67529;DHT22;54366;51.980;5.856;2022-10-31T03:42:51;12.80;82.60
67529;DHT22;54366;51.980;5.856;2022-10-31T03:45:24;12.80;82.80
67529;DHT22;54366;51.980;5.856;2022-10-31T03:47:53;12.80;82.80
67529;DHT22;54366;51.980;5.856;2022-10-31T03:50:22;12.70;82.70
67529;DHT22;54366;51.980;5.856;2022-10-31T03:52:56;12.70;82.70
67529;DHT22;54366;51.980;5.856;2022-10-31T03:55:26;12.70;82.70
67529;DHT22;54366;51.980;5.856;2022-10-31T03:58:03;12.60;82.50
67529;DHT22;54366;51.980;5.856;2022-10-31T04:00:33;12.60;82.50
67529;DHT22;54366;51.980;5.856;2022-10-31T04:03:05;12.60;82.60
67529;DHT22;54366;51.980;5.856;2022-10-31T04:05:36;12.60;82.80
67529;DHT22;54366;51.980;5.856;2022-10-31T04:08:07;12.50;82.80
67529;DHT22;54366;51.980;5.856;2022-10-31T04:10:37;12.50;82.80
67529;DHT22;54366;51.980;5.856;2022-10-31T04:13:08;12.50;82.60
67529;DHT22;54366;51.980;5.856;2022-10-31T04:15:44;12.50;82.60
67529;DHT22;54366;51.980;5.856;2022-10-31T04:18:12;12.50;82.70
67529;DHT22;54366;51.980;5.856;2022-10-31T04:20:40;12.50;82.60
67529;DHT22;54366;51.980;5.856;2022-10-31T04:23:22;12.40;82.70
67529;DHT22;54366;51.980;5.856;2022-10-31T04:25:50;12.40;82.70
67529;DHT22;54366;51.980;5.856;2022-10-31T04:28:18;12.40;82.80
67529;DHT22;54366;51.980;5.856;2022-10-31T04:30:45;12.40;82.70
67529;DHT22;54366;51.980;5.856;2022-10-31T04:33:11;12.30;82.60
67529;DHT22;54366;51.980;5.856;2022-10-31T04:35:38;12.40;82.80
67529;DHT22;54366;51.980;5.856;2022-10-31T04:38:04;12.40;82.90
67529;DHT22;54366;51.980;5.856;2022-10-31T04:40:31;12.30;82.90
67529;DHT22;54366;51.980;5.856;2022-10-31T04:43:00;12.30;82.80
67529;DHT22;54366;51.980;5.856;2022-10-31T04:45:27;12.30;82.80
67529;DHT22;54366;51.980;5.856;2022-10-31T04:47:54;12.30;82.80
67529;DHT22;54366;51.980;5.856;2022-10-31T04:50:20;12.30;82.70
67529;DHT22;54366;51.980;5.856;2022-10-31T04:52:47;12.30;82.90
67529;DHT22;54366;51.980;5.856;2022-10-31T04:55:17;12.30;82.90
67529;DHT22;54366;51.980;5.856;2022-10-31T04:58:01;12.30;83.00
67529;DHT22;54366;51.980;5.856;2022-10-31T05:00:28;12.30;83.10
67529;DHT22;54366;51.980;5.856;2022-10-31T05:02:56;12.30;83.00
67529;DHT22;54366;51.980;5.856;2022-10-31T05:05:29;12.30;83.10
67529;DHT22;54366;51.980;5.856;2022-10-31T05:07:55;12.30;83.20
67529;DHT22;54366;51.980;5.856;2022-10-31T05:10:26;12.30;83.20
67529;DHT22;54366;51.980;5.856;2022-10-31T05:12:56;12.30;83.20
67529;DHT22;54366;51.980;5.856;2022-10-31T05:15:29;12.30;83.10
67529;DHT22;54366;51.980;5.856;2022-10-31T05:18:22;12.20;83.00
67529;DHT22;54366;51.980;5.856;2022-10-31T05:21:07;12.20;82.90
67529;DHT22;54366;51.980;5.856;2022-10-31T05:23:35;12.20;82.90
67529;DHT22;54366;51.980;5.856;2022-10-31T05:26:02;12.20;82.90
67529;DHT22;54366;51.980;5.856;2022-10-31T05:28:29;12.20;83.00
67529;DHT22;54366;51.980;5.856;2022-10-31T05:30:55;12.20;83.00
67529;DHT22;54366;51.980;5.856;2022-10-31T05:33:21;12.20;83.10
67529;DHT22;54366;51.980;5.856;2022-10-31T05:36:06;12.20;83.20
67529;DHT22;54366;51.980;5.856;2022-10-31T05:38:54;12.20;83.50
67529;DHT22;54366;51.980;5.856;2022-10-31T05:41:25;12.20;83.50
67529;DHT22;54366;51.980;5.856;2022-10-31T05:43:55;12.20;83.60
67529;DHT22;54366;51.980;5.856;2022-10-31T05:46:27;12.20;83.80
67529;DHT22;54366;51.980;5.856;2022-10-31T05:49:13;12.20;83.60
67529;DHT22;54366;51.980;5.856;2022-10-31T05:52:11;12.20;83.70
67529;DHT22;54366;51.980;5.856;2022-10-31T05:54:49;12.30;84.00
67529;DHT22;54366;51.980;5.856;2022-10-31T05:57:16;12.20;84.10
67529;DHT22;54366;51.980;5.856;2022-10-31T05:59:42;12.20;84.30
67529;DHT22;54366;51.980;5.856;2022-10-31T06:02:08;12.30;84.30
67529;DHT22;54366;51.980;5.856;2022-10-31T06:04:53;12.30;84.40
67529;DHT22;54366;51.980;5.856;2022-10-31T06:07:19;12.30;84.40
67529;DHT22;54366;51.980;5.856;2022-10-31T06:09:46;12.30;84.50
67529;DHT22;54366;51.980;5.856;2022-10-31T06:12:12;12.40;84.50
67529;DHT22;54366;51.980;5.856;2022-10-31T06:15:06;12.40;84.50
67529;DHT22;54366;51.980;5.856;2022-10-31T06:17:33;12.40;84.40
67529;DHT22;54366;51.980;5.856;2022-10-31T06:20:09;12.40;84.20
67529;DHT22;54366;51.980;5.856;2022-10-31T06:22:48;12.40;84.00
67529;DHT22;54366;51.980;5.856;2022-10-31T06:25:15;12.30;83.90
67529;DHT22;54366;51.980;5.856;2022-10-31T06:27:45;12.30;83.90
67529;DHT22;54366;51.980;5.856;2022-10-31T06:30:14;12.30;83.90
67529;DHT22;54366;51.980;5.856;2022-10-31T06:32:40;12.30;84.00
67529;DHT22;54366;51.980;5.856;2022-10-31T06:35:09;12.30;84.00
67529;DHT22;54366;51.980;5.856;2022-10-31T06:37:36;12.30;84.00
67529;DHT22;54366;51.980;5.856;2022-10-31T06:40:16;12.20;84.00
67529;DHT22;54366;51.980;5.856;2022-10-31T06:43:08;12.30;84.00
67529;DHT22;54366;51.980;5.856;2022-10-31T06:45:35;12.20;84.00
67529;DHT22;54366;51.980;5.856;2022-10-31T06:48:27;12.30;84.10
67529;DHT22;54366;51.980;5.856;2022-10-31T06:51:13;12.20;84.10
67529;DHT22;54366;51.980;5.856;2022-10-31T06:53:39;12.20;84.10
67529;DHT22;54366;51.980;5.856;2022-10-31T06:56:08;12.20;84.00
67529;DHT22;54366;51.980;5.856;2022-10-31T06:58:39;12.20;84.00
67529;DHT22;54366;51.980;5.856;2022-10-31T07:01:08;12.20;84.00
67529;DHT22;54366;51.980;5.856;2022-10-31T07:03:34;12.20;84.00
67529;DHT22;54366;51.980;5.856;2022-10-31T07:06:00;12.20;84.10
67529;DHT22;54366;51.980;5.856;2022-10-31T07:08:27;12.20;84.00
67529;DHT22;54366;51.980;5.856;2022-10-31T07:10:55;12.20;84.10
67529;DHT22;54366;51.980;5.856;2022-10-31T07:13:23;12.20;84.30
67529;DHT22;54366;51.980;5.856;2022-10-31T07:16:06;12.20;84.50
67529;DHT22;54366;51.980;5.856;2022-10-31T07:18:35;12.20;84.60
67529;DHT22;54366;51.980;5.856;2022-10-31T07:21:01;12.20;84.60
67529;DHT22;54366;51.980;5.856;2022-10-31T07:23:27;12.20;84.60
67529;DHT22;54366;51.980;5.856;2022-10-31T07:26:13;12.30;84.70
67529;DHT22;54366;51.980;5.856;2022-10-31T07:28:46;12.40;84.90
67529;DHT22;54366;51.980;5.856;2022-10-31T07:31:14;12.40;84.90
67529;DHT22;54366;51.980;5.856;2022-10-31T07:33:40;12.40;85.10
67529;DHT22;54366;51.980;5.856;2022-10-31T07:36:36;12.50;85.10
67529;DHT22;54366;51.980;5.856;2022-10-31T07:39:03;12.50;85.00
67529;DHT22;54366;51.980;5.856;2022-10-31T07:41:32;12.60;84.90
67529;DHT22;54366;51.980;5.856;2022-10-31T07:43:59;12.70;85.20
67529;DHT22;54366;51.980;5.856;2022-10-31T07:46:45;12.60;85.20
67529;DHT22;54366;51.980;5.856;2022-10-31T07:49:35;12.70;85.20
67529;DHT22;54366;51.980;5.856;2022-10-31T07:52:19;12.80;85.10
67529;DHT22;54366;51.980;5.856;2022-10-31T07:54:55;12.90;85.10
67529;DHT22;54366;51.980;5.856;2022-10-31T07:57:24;13.00;85.30
67529;DHT22;54366;51.980;5.856;2022-10-31T07:59:50;13.00;85.10
67529;DHT22;54366;51.980;5.856;2022-10-31T08:02:17;13.10;85.10
67529;DHT22;54366;51.980;5.856;2022-10-31T08:04:47;13.20;85.30
67529;DHT22;54366;51.980;5.856;2022-10-31T08:07:36;13.30;85.10
67529;DHT22;54366;51.980;5.856;2022-10-31T08:10:05;13.40;84.80
67529;DHT22;54366;51.980;5.856;2022-10-31T08:12:31;13.50;84.70
67529;DHT22;54366;51.980;5.856;2022-10-31T08:14:58;13.60;84.70
67529;DHT22;54366;51.980;5.856;2022-10-31T08:17:24;13.60;85.00
67529;DHT22;54366;51.980;5.856;2022-10-31T08:19:57;13.70;84.80
67529;DHT22;54366;51.980;5.856;2022-10-31T08:22:28;13.80;85.50
67529;DHT22;54366;51.980;5.856;2022-10-31T08:24:55;13.90;85.40
67529;DHT22;54366;51.980;5.856;2022-10-31T08:27:21;14.00;85.30
67529;DHT22;54366;51.980;5.856;2022-10-31T08:29:48;14.00;85.20
67529;DHT22;54366;51.980;5.856;2022-10-31T08:32:14;14.10;85.30
67529;DHT22;54366;51.980;5.856;2022-10-31T08:34:58;14.20;85.20
67529;DHT22;54366;51.980;5.856;2022-10-31T08:37:43;14.20;85.20
67529;DHT22;54366;51.980;5.856;2022-10-31T08:40:10;14.20;85.00
67529;DHT22;54366;51.980;5.856;2022-10-31T08:42:37;14.30;84.90
67529;DHT22;54366;51.980;5.856;2022-10-31T08:45:03;14.30;84.80
67529;DHT22;54366;51.980;5.856;2022-10-31T08:47:32;14.30;84.80
67529;DHT22;54366;51.980;5.856;2022-10-31T08:49:58;14.30;84.90
67529;DHT22;54366;51.980;5.856;2022-10-31T08:52:24;14.40;85.00
67529;DHT22;54366;51.980;5.856;2022-10-31T08:54:57;14.40;84.90
67529;DHT22;54366;51.980;5.856;2022-10-31T08:58:06;14.50;84.90
67529;DHT22;54366;51.980;5.856;2022-10-31T09:00:43;14.60;84.70
67529;DHT22;54366;51.980;5.856;2022-10-31T09:03:16;14.60;84.70
67529;DHT22;54366;51.980;5.856;2022-10-31T09:05:43;14.70;84.70
67529;DHT22;54366;51.980;5.856;2022-10-31T09:08:12;14.80;84.60
67529;DHT22;54366;51.980;5.856;2022-10-31T09:10:39;14.80;84.50
67529;DHT22;54366;51.980;5.856;2022-10-31T09:13:08;14.90;84.50
67529;DHT22;54366;51.980;5.856;2022-10-31T09:15:57;15.00;84.30
67529;DHT22;54366;51.980;5.856;2022-10-31T09:18:24;15.00;84.10
67529;DHT22;54366;51.980;5.856;2022-10-31T09:20:59;15.10;84.10
67529;DHT22;54366;51.980;5.856;2022-10-31T09:23:27;15.10;84.10
67529;DHT22;54366;51.980;5.856;2022-10-31T09:25:54;15.20;84.10
67529;DHT22;54366;51.980;5.856;2022-10-31T09:28:30;15.20;83.90
67529;DHT22;54366;51.980;5.856;2022-10-31T09:31:03;15.30;83.90
67529;DHT22;54366;51.980;5.856;2022-10-31T09:33:52;15.30;83.70
67529;DHT22;54366;51.980;5.856;2022-10-31T09:36:38;15.30;83.60
67529;DHT22;54366;51.980;5.856;2022-10-31T09:39:07;15.40;83.50
67529;DHT22;54366;51.980;5.856;2022-10-31T09:44:43;15.40;83.40
67529;DHT22;54366;51.980;5.856;2022-10-31T09:47:44;15.50;83.40
67529;DHT22;54366;51.980;5.856;2022-10-31T09:50:45;15.50;83.40
67529;DHT22;54366;51.980;5.856;2022-10-31T09:54:00;15.60;83.20
67529;DHT22;54366;51.980;5.856;2022-10-31T09:56:28;15.60;83.10
67529;DHT22;54366;51.980;5.856;2022-10-31T09:58:59;15.70;83.20
67529;DHT22;54366;51.980;5.856;2022-10-31T10:22:08;16.10;83.20
67529;DHT22;54366;51.980;5.856;2022-10-31T10:30:11;16.10;83.00
67529;DHT22;54366;51.980;5.856;2022-10-31T10:32:58;16.20;83.00
67529;DHT22;54366;51.980;5.856;2022-10-31T10:38:19;16.30;83.00
67529;DHT22;54366;51.980;5.856;2022-10-31T10:40:49;16.30;83.00
67529;DHT22;54366;51.980;5.856;2022-10-31T10:43:23;16.30;82.90
67529;DHT22;54366;51.980;5.856;2022-10-31T10:59:54;16.50;82.80
67529;DHT22;54366;51.980;5.856;2022-10-31T11:02:26;16.60;82.90
67529;DHT22;54366;51.980;5.856;2022-10-31T11:04:56;16.70;82.50
67529;DHT22;54366;51.980;5.856;2022-10-31T11:07:23;16.80;82.30
67529;DHT22;54366;51.980;5.856;2022-10-31T11:09:50;16.90;81.50
67529;DHT22;54366;51.980;5.856;2022-10-31T11:17:39;17.10;80.50
67529;DHT22;54366;51.980;5.856;2022-10-31T11:20:28;17.20;80.20
67529;DHT22;54366;51.980;5.856;2022-10-31T11:23:20;17.30;79.70
67529;DHT22;54366;51.980;5.856;2022-10-31T11:26:05;17.40;79.70
67529;DHT22;54366;51.980;5.856;2022-10-31T11:28:33;17.40;79.60
67529;DHT22;54366;51.980;5.856;2022-10-31T11:31:12;17.50;79.60
67529;DHT22;54366;51.980;5.856;2022-10-31T11:33:47;17.50;79.00
67529;DHT22;54366;51.980;5.856;2022-10-31T11:36:24;17.50;78.80
67529;DHT22;54366;51.980;5.856;2022-10-31T11:38:51;17.50;78.30
67529;DHT22;54366;51.980;5.856;2022-10-31T11:41:19;17.50;78.60
67529;DHT22;54366;51.980;5.856;2022-10-31T11:43:55;17.60;78.50
67529;DHT22;54366;51.980;5.856;2022-10-31T11:46:38;17.60;78.00
67529;DHT22;54366;51.980;5.856;2022-10-31T11:49:12;17.60;78.40
67529;DHT22;54366;51.980;5.856;2022-10-31T11:51:40;17.70;78.40
67529;DHT22;54366;51.980;5.856;2022-10-31T11:54:20;17.70;77.80
67529;DHT22;54366;51.980;5.856;2022-10-31T11:56:46;17.70;78.10
67529;DHT22;54366;51.980;5.856;2022-10-31T11:59:28;17.70;78.30
67529;DHT22;54366;51.980;5.856;2022-10-31T12:01:57;17.80;78.40
67529;DHT22;54366;51.980;5.856;2022-10-31T12:04:29;17.80;78.20
67529;DHT22;54366;51.980;5.856;2022-10-31T12:06:57;17.80;78.30
67529;DHT22;54366;51.980;5.856;2022-10-31T12:09:29;17.80;78.60
67529;DHT22;54366;51.980;5.856;2022-10-31T12:14:57;17.80;78.80
67529;DHT22;54366;51.980;5.856;2022-10-31T12:17:29;17.90;78.20
67529;DHT22;54366;51.980;5.856;2022-10-31T12:23:09;17.90;77.80
67529;DHT22;54366;51.980;5.856;2022-10-31T12:25:51;18.00;78.10
67529;DHT22;54366;51.980;5.856;2022-10-31T12:45:17;18.10;77.90
67529;DHT22;54366;51.980;5.856;2022-10-31T12:54:01;18.20;76.80
67529;DHT22;54366;51.980;5.856;2022-10-31T12:59:33;18.30;76.70
67529;DHT22;54366;51.980;5.856;2022-10-31T13:02:41;18.40;76.80
67529;DHT22;54366;51.980;5.856;2022-10-31T13:05:17;18.40;76.30
67529;DHT22;54366;51.980;5.856;2022-10-31T13:07:56;18.40;76.40
67529;DHT22;54366;51.980;5.856;2022-10-31T13:13:07;18.40;76.80
67529;DHT22;54366;51.980;5.856;2022-10-31T13:15:52;18.50;76.60
67529;DHT22;54366;51.980;5.856;2022-10-31T13:21:27;18.50;76.60
67529;DHT22;54366;51.980;5.856;2022-10-31T13:23:59;18.60;76.70
67529;DHT22;54366;51.980;5.856;2022-10-31T13:26:49;18.50;76.30
67529;DHT22;54366;51.980;5.856;2022-10-31T13:29:36;18.60;76.50
67529;DHT22;54366;51.980;5.856;2022-10-31T13:32:06;18.60;76.90
67529;DHT22;54366;51.980;5.856;2022-10-31T13:34:52;18.60;76.50
67529;DHT22;54366;51.980;5.856;2022-10-31T13:37:37;18.60;76.40
67529;DHT22;54366;51.980;5.856;2022-10-31T13:40:12;18.60;76.30
67529;DHT22;54366;51.980;5.856;2022-10-31T13:45:30;18.60;76.20
67529;DHT22;54366;51.980;5.856;2022-10-31T13:48:17;18.60;76.40
67529;DHT22;54366;51.980;5.856;2022-10-31T13:51:05;18.60;75.30
67529;DHT22;54366;51.980;5.856;2022-10-31T14:01:36;18.60;75.60
67529;DHT22;54366;51.980;5.856;2022-10-31T14:04:13;18.60;75.80
67529;DHT22;54366;51.980;5.856;2022-10-31T14:09:37;18.70;75.70
67529;DHT22;54366;51.980;5.856;2022-10-31T14:12:07;18.60;75.50
67529;DHT22;54366;51.980;5.856;2022-10-31T14:14:49;18.70;75.50
67529;DHT22;54366;51.980;5.856;2022-10-31T14:17:26;18.60;75.50
67529;DHT22;54366;51.980;5.856;2022-10-31T14:22:39;18.70;75.00
67529;DHT22;54366;51.980;5.856;2022-10-31T14:25:25;18.60;74.80
67529;DHT22;54366;51.980;5.856;2022-10-31T14:27:51;18.60;74.70
67529;DHT22;54366;51.980;5.856;2022-10-31T14:30:24;18.50;74.60
67529;DHT22;54366;51.980;5.856;2022-10-31T14:32:57;18.50;74.80
67529;DHT22;54366;51.980;5.856;2022-10-31T14:38:36;18.50;74.50
67529;DHT22;54366;51.980;5.856;2022-10-31T14:41:31;18.50;74.70
67529;DHT22;54366;51.980;5.856;2022-10-31T14:50:23;18.40;74.60
67529;DHT22;54366;51.980;5.856;2022-10-31T14:52:50;18.40;74.70
67529;DHT22;54366;51.980;5.856;2022-10-31T14:55:18;18.30;74.80
67529;DHT22;54366;51.980;5.856;2022-10-31T14:58:06;18.30;75.10
67529;DHT22;54366;51.980;5.856;2022-10-31T15:00:33;18.30;75.00
67529;DHT22;54366;51.980;5.856;2022-10-31T15:03:25;18.30;75.30
67529;DHT22;54366;51.980;5.856;2022-10-31T15:05:56;18.30;75.40
67529;DHT22;54366;51.980;5.856;2022-10-31T15:08:38;18.30;75.40
67529;DHT22;54366;51.980;5.856;2022-10-31T15:13:48;18.30;75.00
67529;DHT22;54366;51.980;5.856;2022-10-31T15:16:21;18.30;75.20
67529;DHT22;54366;51.980;5.856;2022-10-31T15:18:59;18.20;75.50
67529;DHT22;54366;51.980;5.856;2022-10-31T15:21:27;18.20;75.60
67529;DHT22;54366;51.980;5.856;2022-10-31T15:23:56;18.20;75.50
67529;DHT22;54366;51.980;5.856;2022-10-31T15:26:28;18.20;75.70
67529;DHT22;54366;51.980;5.856;2022-10-31T15:29:03;18.10;75.70
67529;DHT22;54366;51.980;5.856;2022-10-31T15:31:31;18.10;75.80
67529;DHT22;54366;51.980;5.856;2022-10-31T15:34:11;18.10;76.00
67529;DHT22;54366;51.980;5.856;2022-10-31T15:36:42;18.10;76.00
67529;DHT22;54366;51.980;5.856;2022-10-31T15:39:11;18.00;76.00
67529;DHT22;54366;51.980;5.856;2022-10-31T15:41:57;18.00;76.10
67529;DHT22;54366;51.980;5.856;2022-10-31T15:44:36;18.00;76.10
67529;DHT22;54366;51.980;5.856;2022-10-31T15:47:17;18.00;76.30
67529;DHT22;54366;51.980;5.856;2022-10-31T15:49:55;18.00;76.50
67529;DHT22;54366;51.980;5.856;2022-10-31T15:52:40;18.00;76.50
67529;DHT22;54366;51.980;5.856;2022-10-31T15:57:44;17.90;76.60
67529;DHT22;54366;51.980;5.856;2022-10-31T16:05:51;17.90;76.90
67529;DHT22;54366;51.980;5.856;2022-10-31T16:11:17;17.80;77.00
67529;DHT22;54366;51.980;5.856;2022-10-31T16:16:24;17.70;77.20
67529;DHT22;54366;51.980;5.856;2022-10-31T16:18:53;17.80;77.30
67529;DHT22;54366;51.980;5.856;2022-10-31T16:21:33;17.70;77.40
67529;DHT22;54366;51.980;5.856;2022-10-31T16:24:04;17.70;77.50
67529;DHT22;54366;51.980;5.856;2022-10-31T16:26:37;17.70;77.60
67529;DHT22;54366;51.980;5.856;2022-10-31T16:29:03;17.70;77.60
67529;DHT22;54366;51.980;5.856;2022-10-31T16:31:39;17.60;77.60
67529;DHT22;54366;51.980;5.856;2022-10-31T16:34:15;17.60;77.70
67529;DHT22;54366;51.980;5.856;2022-10-31T16:36:41;17.60;77.80
67529;DHT22;54366;51.980;5.856;2022-10-31T16:39:08;17.60;77.90
67529;DHT22;54366;51.980;5.856;2022-10-31T16:41:39;17.60;77.90
67529;DHT22;54366;51.980;5.856;2022-10-31T16:44:23;17.60;78.00
67529;DHT22;54366;51.980;5.856;2022-10-31T16:47:08;17.50;78.00
67529;DHT22;54366;51.980;5.856;2022-10-31T16:49:35;17.50;78.00
67529;DHT22;54366;51.980;5.856;2022-10-31T16:52:01;17.50;78.10
67529;DHT22;54366;51.980;5.856;2022-10-31T16:54:29;17.50;78.10
67529;DHT22;54366;51.980;5.856;2022-10-31T16:56:55;17.50;78.20
67529;DHT22;54366;51.980;5.856;2022-10-31T16:59:23;17.50;78.30
67529;DHT22;54366;51.980;5.856;2022-10-31T17:01:49;17.40;78.30
67529;DHT22;54366;51.980;5.856;2022-10-31T17:04:15;17.40;78.30
67529;DHT22;54366;51.980;5.856;2022-10-31T17:06:41;17.40;78.40
67529;DHT22;54366;51.980;5.856;2022-10-31T17:09:08;17.30;78.40
67529;DHT22;54366;51.980;5.856;2022-10-31T17:11:34;17.30;78.50
67529;DHT22;54366;51.980;5.856;2022-10-31T17:14:01;17.30;78.50
67529;DHT22;54366;51.980;5.856;2022-10-31T17:16:27;17.30;78.60
67529;DHT22;54366;51.980;5.856;2022-10-31T17:18:53;17.30;78.70
67529;DHT22;54366;51.980;5.856;2022-10-31T17:21:23;17.30;78.70
67529;DHT22;54366;51.980;5.856;2022-10-31T17:23:51;17.20;78.70
67529;DHT22;54366;51.980;5.856;2022-10-31T17:26:17;17.20;78.70
67529;DHT22;54366;51.980;5.856;2022-10-31T17:28:44;17.20;78.90
67529;DHT22;54366;51.980;5.856;2022-10-31T17:31:30;17.20;78.90
67529;DHT22;54366;51.980;5.856;2022-10-31T17:33:57;17.20;79.10
67529;DHT22;54366;51.980;5.856;2022-10-31T17:36:25;17.20;79.00
67529;DHT22;54366;51.980;5.856;2022-10-31T17:38:51;17.10;78.90
67529;DHT22;54366;51.980;5.856;2022-10-31T17:41:18;17.10;78.90
67529;DHT22;54366;51.980;5.856;2022-10-31T17:43:44;17.10;78.90
67529;DHT22;54366;51.980;5.856;2022-10-31T17:46:10;17.10;78.90
67529;DHT22;54366;51.980;5.856;2022-10-31T17:48:37;17.10;78.90
67529;DHT22;54366;51.980;5.856;2022-10-31T17:51:04;17.10;79.00
67529;DHT22;54366;51.980;5.856;2022-10-31T17:53:32;17.10;79.00
67529;DHT22;54366;51.980;5.856;2022-10-31T17:56:03;17.10;79.00
67529;DHT22;54366;51.980;5.856;2022-10-31T17:58:30;17.10;79.10
67529;DHT22;54366;51.980;5.856;2022-10-31T18:00:57;17.00;79.10
67529;DHT22;54366;51.980;5.856;2022-10-31T18:03:24;17.00;79.10
67529;DHT22;54366;51.980;5.856;2022-10-31T18:05:53;17.00;79.10
67529;DHT22;54366;51.980;5.856;2022-10-31T18:08:26;17.00;79.10
67529;DHT22;54366;51.980;5.856;2022-10-31T18:10:53;17.00;79.20
67529;DHT22;54366;51.980;5.856;2022-10-31T18:13:19;17.00;79.20
67529;DHT22;54366;51.980;5.856;2022-10-31T18:15:46;17.00;79.20
67529;DHT22;54366;51.980;5.856;2022-10-31T18:18:12;16.90;79.10
67529;DHT22;54366;51.980;5.856;2022-10-31T18:20:38;16.90;79.10
67529;DHT22;54366;51.980;5.856;2022-10-31T18:23:05;16.90;79.10
67529;DHT22;54366;51.980;5.856;2022-10-31T18:25:32;16.90;79.20
67529;DHT22;54366;51.980;5.856;2022-10-31T18:27:58;16.80;79.10
67529;DHT22;54366;51.980;5.856;2022-10-31T18:30:24;16.90;79.20
67529;DHT22;54366;51.980;5.856;2022-10-31T18:32:51;16.80;79.20
67529;DHT22;54366;51.980;5.856;2022-10-31T18:35:17;16.80;79.20
67529;DHT22;54366;51.980;5.856;2022-10-31T18:37:43;16.80;79.10
67529;DHT22;54366;51.980;5.856;2022-10-31T18:40:10;16.80;79.20